Time;durP1;ratioP1;P1;durP2;ratioP2;P2;SDS_P1;SDS_P2;PMS_P1;PMS_P2;Temp;Humidity;BMP_temperature;BMP_pressure;BME280_temperature;BME280_humidity;BME280_pressure;Samples;Min_cycle;Max_cycle;Signal;HPM_P1;HPM_P2
2023/06/10 00:01:01;;;;;;;7.47;4.97;;;17.10;99.90;;;;;;4950649;28;20727;-64
2023/06/10 00:03:26;;;;;;;10.23;4.67;;;17.00;99.90;;;;;;4951778;28;20203;-65
2023/06/10 00:05:52;;;;;;;9.10;5.03;;;17.00;99.90;;;;;;4947295;28;20202;-63
2023/06/10 00:08:19;;;;;;;9.07;4.83;;;16.90;99.90;;;;;;4947559;28;20201;-62
2023/06/10 00:10:45;;;;;;;5.67;3.90;;;16.90;99.90;;;;;;4950437;28;20211;-63
2023/06/10 00:13:13;;;;;;;10.33;4.57;;;16.70;99.90;;;;;;4950536;28;20220;-63
2023/06/10 00:15:39;;;;;;;6.63;4.47;;;16.60;99.90;;;;;;4949711;28;20953;-63
2023/06/10 00:18:05;;;;;;;7.30;4.53;;;16.70;99.90;;;;;;4949360;28;20220;-62
2023/06/10 00:20:30;;;;;;;7.23;3.70;;;16.60;99.90;;;;;;4946030;28;20238;-69
2023/06/10 00:22:59;;;;;;;11.83;4.87;;;16.50;99.90;;;;;;4949362;28;20828;-76
2023/06/10 00:25:25;;;;;;;9.80;4.37;;;16.50;99.90;;;;;;4950514;28;20207;-65
2023/06/10 00:27:51;;;;;;;9.83;5.03;;;16.40;99.90;;;;;;4949429;28;20230;-64
2023/06/10 00:30:16;;;;;;;7.83;5.13;;;16.40;99.90;;;;;;4949655;28;20214;-68
2023/06/10 00:32:42;;;;;;;10.10;5.23;;;16.40;99.90;;;;;;4949658;28;20577;-69
2023/06/10 00:35:07;;;;;;;8.80;4.43;;;16.50;99.90;;;;;;4944641;28;20219;-69
2023/06/10 00:37:35;;;;;;;9.07;4.53;;;16.50;99.90;;;;;;4953228;28;20916;-67
2023/06/10 00:40:02;;;;;;;10.00;5.07;;;16.50;99.90;;;;;;4947176;28;20212;-68
2023/06/10 00:42:27;;;;;;;8.17;4.70;;;16.40;99.90;;;;;;4949437;28;20228;-68
2023/06/10 00:44:54;;;;;;;15.00;4.97;;;16.50;99.90;;;;;;4950348;28;20204;-67
2023/06/10 00:47:20;;;;;;;9.77;5.20;;;16.50;99.90;;;;;;4948111;28;20203;-68
2023/06/10 00:49:47;;;;;;;8.83;5.37;;;16.50;99.90;;;;;;4950375;28;20201;-68
2023/06/10 00:52:15;;;;;;;11.10;5.07;;;16.40;99.90;;;;;;4949932;28;20360;-65
2023/06/10 00:54:41;;;;;;;6.57;4.63;;;16.30;99.90;;;;;;4946938;28;20202;-65
2023/06/10 00:57:07;;;;;;;6.93;4.60;;;16.20;99.90;;;;;;4950345;28;20232;-65
2023/06/10 00:59:32;;;;;;;11.60;5.60;;;16.20;99.90;;;;;;4949261;28;20241;-65
2023/06/10 01:01:59;;;;;;;8.00;4.93;;;16.10;99.90;;;;;;4946927;28;20219;-64
2023/06/10 01:04:24;;;;;;;8.37;4.73;;;16.10;99.90;;;;;;4950009;28;20218;-64
2023/06/10 01:07:14;;;;;;;7.20;5.00;;;16.10;99.90;;;;;;4954435;28;20205;-65
2023/06/10 01:09:51;;;;;;;12.07;4.73;;;16.10;99.90;;;;;;4944292;28;20672;-64
2023/06/10 01:12:26;;;;;;;7.90;4.53;;;16.10;99.90;;;;;;4947369;28;20210;-65
2023/06/10 01:14:52;;;;;;;8.83;4.33;;;16.10;99.90;;;;;;4945830;28;20202;-64
2023/06/10 01:17:18;;;;;;;7.53;4.40;;;16.10;99.90;;;;;;4947131;28;20254;-64
2023/06/10 01:19:44;;;;;;;7.60;4.43;;;16.20;99.90;;;;;;4948051;28;20226;-65
2023/06/10 01:22:10;;;;;;;7.40;4.73;;;16.10;99.90;;;;;;4945380;28;20639;-67
2023/06/10 01:24:36;;;;;;;7.83;4.40;;;16.10;99.90;;;;;;4948078;28;20234;-64
2023/06/10 01:27:06;;;;;;;11.40;5.10;;;16.10;99.90;;;;;;4927913;28;20292;-67
2023/06/10 01:29:42;;;;;;;5.30;3.90;;;16.00;99.90;;;;;;4946813;28;20256;-67
2023/06/10 01:32:22;;;;;;;7.07;4.27;;;16.00;99.90;;;;;;4945194;28;20207;-67
2023/06/10 01:34:49;;;;;;;9.07;4.63;;;15.90;99.90;;;;;;4945045;28;20238;-67
2023/06/10 01:37:18;;;;;;;12.10;5.20;;;15.90;99.90;;;;;;4948647;28;20201;-67
2023/06/10 01:39:46;;;;;;;6.93;4.80;;;16.00;99.90;;;;;;4957796;28;20776;-64
2023/06/10 01:42:11;;;;;;;7.20;4.50;;;15.90;99.90;;;;;;4958438;28;20200;-67
2023/06/10 01:44:39;;;;;;;8.63;4.83;;;16.00;99.90;;;;;;4958406;28;20569;-66
2023/06/10 01:47:04;;;;;;;9.13;4.27;;;16.10;99.90;;;;;;4957456;28;20289;-67
2023/06/10 01:49:30;;;;;;;9.83;5.27;;;16.00;99.90;;;;;;4958826;28;20323;-68
2023/06/10 01:51:55;;;;;;;10.13;4.17;;;16.00;99.90;;;;;;4958444;28;20249;-67
2023/06/10 01:54:21;;;;;;;12.60;4.70;;;15.90;99.90;;;;;;4958141;28;20223;-66
2023/06/10 01:56:46;;;;;;;10.67;4.73;;;15.70;99.90;;;;;;4958331;28;20673;-64
2023/06/10 01:59:12;;;;;;;10.07;4.67;;;15.80;99.90;;;;;;4948407;28;20304;-66
2023/06/10 02:01:37;;;;;;;9.47;4.67;;;15.90;99.90;;;;;;4953036;28;20213;-66
2023/06/10 02:04:03;;;;;;;11.70;4.60;;;15.80;99.90;;;;;;4953358;28;20206;-65
2023/06/10 02:06:28;;;;;;;11.03;5.33;;;15.80;99.90;;;;;;4955340;28;20185;-64
2023/06/10 02:08:54;;;;;;;12.43;5.43;;;15.80;99.90;;;;;;4945891;28;20214;-64
2023/06/10 02:11:20;;;;;;;8.67;4.60;;;15.70;99.90;;;;;;4944928;28;20206;-64
2023/06/10 02:13:45;;;;;;;7.97;4.63;;;15.60;99.90;;;;;;4947268;28;20234;-64
2023/06/10 02:16:12;;;;;;;11.20;4.50;;;15.60;99.90;;;;;;4946133;28;20284;-63
2023/06/10 02:18:40;;;;;;;18.23;5.53;;;15.50;99.90;;;;;;4950763;28;20319;-63
2023/06/10 02:21:06;;;;;;;10.10;4.83;;;15.60;99.90;;;;;;4956361;28;20271;-64
2023/06/10 02:23:32;;;;;;;8.77;5.00;;;15.60;99.90;;;;;;4955058;28;20222;-64
2023/06/10 02:25:57;;;;;;;6.30;4.07;;;15.70;99.90;;;;;;4951690;28;20611;-64
2023/06/10 02:28:23;;;;;;;11.60;4.80;;;15.70;99.90;;;;;;4949874;28;20205;-64
2023/06/10 02:30:48;;;;;;;6.87;4.07;;;15.70;99.90;;;;;;4955307;28;20683;-63
2023/06/10 02:33:14;;;;;;;6.67;4.27;;;15.70;99.90;;;;;;4948177;28;20292;-63
2023/06/10 02:35:40;;;;;;;7.97;4.90;;;15.60;99.90;;;;;;4949434;28;20217;-63
2023/06/10 02:38:06;;;;;;;12.30;5.50;;;15.60;99.90;;;;;;4944562;28;20636;-64
2023/06/10 02:40:31;;;;;;;8.67;5.03;;;15.50;99.90;;;;;;4947891;28;20264;-63
2023/06/10 02:42:58;;;;;;;8.63;4.57;;;15.60;99.90;;;;;;4947659;28;20287;-63
2023/06/10 02:45:23;;;;;;;8.27;5.17;;;15.60;99.90;;;;;;4947633;28;20206;-64
2023/06/10 02:47:49;;;;;;;6.00;4.23;;;15.50;99.90;;;;;;4947699;28;20201;-65
2023/06/10 02:50:15;;;;;;;7.53;4.57;;;15.50;99.90;;;;;;4946212;28;20210;-64
2023/06/10 02:52:41;;;;;;;8.20;4.27;;;15.50;99.90;;;;;;4951352;28;20711;-64
2023/06/10 02:55:06;;;;;;;8.00;4.30;;;15.50;99.90;;;;;;4949141;28;20291;-64
2023/06/10 02:57:32;;;;;;;9.63;5.17;;;15.50;99.90;;;;;;4952352;28;20728;-64
2023/06/10 02:59:58;;;;;;;7.47;4.60;;;15.50;99.90;;;;;;4949025;28;20494;-64
2023/06/10 03:02:28;;;;;;;7.10;4.83;;;15.40;99.90;;;;;;4952114;28;20287;-68
2023/06/10 03:04:56;;;;;;;9.80;4.70;;;15.40;99.90;;;;;;4949565;28;20205;-64
2023/06/10 03:07:23;;;;;;;8.27;5.00;;;15.40;99.90;;;;;;4951457;28;20409;-64
2023/06/10 03:09:48;;;;;;;8.53;4.50;;;15.40;99.90;;;;;;4950872;28;20342;-64
2023/06/10 03:12:14;;;;;;;9.80;4.40;;;15.40;99.90;;;;;;4951323;28;20297;-64
2023/06/10 03:14:39;;;;;;;6.53;4.27;;;15.40;99.90;;;;;;4953877;28;20237;-64
2023/06/10 03:17:06;;;;;;;7.27;4.33;;;15.30;99.90;;;;;;4951203;28;20194;-63
2023/06/10 03:19:33;;;;;;;7.83;4.93;;;15.30;99.90;;;;;;4948606;28;20239;-64
2023/06/10 03:22:08;;;;;;;8.77;5.07;;;15.40;99.90;;;;;;4951757;28;20206;-64
2023/06/10 03:24:35;;;;;;;9.40;5.33;;;15.40;99.90;;;;;;4931900;28;20233;-64
2023/06/10 03:27:01;;;;;;;11.30;5.63;;;15.40;99.90;;;;;;4950897;28;20232;-63
2023/06/10 03:29:27;;;;;;;11.70;5.30;;;15.40;99.90;;;;;;4952743;28;20201;-64
2023/06/10 03:31:52;;;;;;;10.90;5.60;;;15.30;99.90;;;;;;4960478;28;20651;-64
2023/06/10 03:34:18;;;;;;;7.73;4.33;;;15.40;99.90;;;;;;4960500;28;20213;-63
2023/06/10 03:36:43;;;;;;;8.23;5.20;;;15.40;99.90;;;;;;4961063;28;20209;-63
2023/06/10 03:39:10;;;;;;;9.90;5.13;;;15.30;99.90;;;;;;4953612;28;20213;-63
2023/06/10 03:41:35;;;;;;;7.20;4.70;;;15.30;99.90;;;;;;4959152;28;20201;-64
2023/06/10 03:44:01;;;;;;;10.93;5.00;;;15.40;99.90;;;;;;4956976;28;20222;-63
2023/06/10 03:46:26;;;;;;;8.70;4.60;;;15.40;99.90;;;;;;4955385;28;20257;-64
2023/06/10 03:48:52;;;;;;;7.60;4.97;;;15.40;99.90;;;;;;4959433;28;20538;-63
2023/06/10 03:51:17;;;;;;;9.87;4.90;;;15.40;99.90;;;;;;4960222;28;20275;-63
2023/06/10 03:53:43;;;;;;;8.73;5.37;;;15.40;99.90;;;;;;4958363;28;20297;-63
2023/06/10 03:56:08;;;;;;;9.17;4.47;;;15.40;99.90;;;;;;4960218;28;20214;-64
2023/06/10 03:58:34;;;;;;;7.17;6.47;;;15.40;99.90;;;;;;4960450;28;20780;-64
2023/06/10 04:00:59;;;;;;;6.83;4.67;;;15.30;99.90;;;;;;4960226;28;20708;-64
2023/06/10 04:03:26;;;;;;;13.00;4.80;;;15.30;99.90;;;;;;4958276;28;20694;-64
2023/06/10 04:05:51;;;;;;;8.10;5.80;;;15.30;99.90;;;;;;4951465;28;20783;-64
2023/06/10 04:08:17;;;;;;;12.27;6.03;;;15.30;99.90;;;;;;4958706;28;20213;-64
2023/06/10 04:10:43;;;;;;;7.50;5.03;;;15.30;99.90;;;;;;4960593;28;20605;-64
2023/06/10 04:13:09;;;;;;;9.27;6.00;;;15.40;99.90;;;;;;4959414;28;20220;-64
2023/06/10 04:15:34;;;;;;;12.07;5.77;;;15.30;99.90;;;;;;4960051;28;20289;-64
2023/06/10 04:18:03;;;;;;;13.03;5.20;;;15.30;99.90;;;;;;4958002;28;20211;-64
2023/06/10 04:20:29;;;;;;;11.30;5.60;;;15.30;99.90;;;;;;4959990;28;20230;-63
2023/06/10 04:22:54;;;;;;;9.40;5.73;;;15.50;99.90;;;;;;4959693;28;20261;-64
2023/06/10 04:25:20;;;;;;;10.33;6.23;;;15.50;99.90;;;;;;4951007;28;20246;-64
2023/06/10 04:27:45;;;;;;;7.10;5.17;;;15.50;99.90;;;;;;4959215;28;20203;-64
2023/06/10 04:30:12;;;;;;;9.73;6.17;;;15.40;99.90;;;;;;4956637;28;20737;-64
2023/06/10 04:32:37;;;;;;;10.97;5.73;;;15.40;99.90;;;;;;4954259;28;20229;-63
2023/06/10 04:35:03;;;;;;;9.53;6.03;;;15.40;99.90;;;;;;4954601;28;20232;-64
2023/06/10 04:37:29;;;;;;;10.03;5.60;;;15.50;99.90;;;;;;4957018;28;21079;-63
2023/06/10 04:39:54;;;;;;;10.53;5.50;;;15.60;99.90;;;;;;4939864;28;20788;-63
2023/06/10 04:42:20;;;;;;;8.10;5.57;;;15.60;99.90;;;;;;4959040;28;20201;-63
2023/06/10 04:44:45;;;;;;;9.97;5.20;;;15.70;99.90;;;;;;4957275;28;20673;-63
2023/06/10 04:47:11;;;;;;;9.53;5.70;;;15.70;99.90;;;;;;4959306;28;20904;-64
2023/06/10 04:49:36;;;;;;;11.37;7.40;;;15.60;99.90;;;;;;4958586;28;20200;-63
2023/06/10 04:52:04;;;;;;;10.60;6.40;;;15.70;99.90;;;;;;4955086;28;20208;-63
2023/06/10 04:54:29;;;;;;;7.37;5.47;;;15.70;99.90;;;;;;4956680;28;20330;-63
2023/06/10 04:56:55;;;;;;;10.93;5.40;;;15.70;99.90;;;;;;4958899;28;20712;-63
2023/06/10 04:59:20;;;;;;;9.60;5.77;;;15.70;99.90;;;;;;4936988;28;20207;-63
2023/06/10 05:01:46;;;;;;;8.30;5.07;;;15.80;99.90;;;;;;4959014;28;20756;-67
2023/06/10 05:04:11;;;;;;;10.90;5.70;;;15.80;99.90;;;;;;4959326;28;20258;-63
2023/06/10 05:06:36;;;;;;;11.50;5.90;;;15.70;99.90;;;;;;4959291;28;20284;-64
2023/06/10 05:09:02;;;;;;;10.40;5.97;;;15.80;99.90;;;;;;4956979;28;20198;-64
2023/06/10 05:11:28;;;;;;;10.53;5.93;;;15.90;99.90;;;;;;4958958;28;20221;-64
2023/06/10 05:13:53;;;;;;;12.53;7.07;;;16.00;99.90;;;;;;4958524;28;20210;-63
2023/06/10 05:16:19;;;;;;;13.83;5.63;;;15.80;99.90;;;;;;4958914;28;20681;-63
2023/06/10 05:18:44;;;;;;;9.83;5.70;;;15.80;99.90;;;;;;4958982;28;20280;-64
2023/06/10 05:21:10;;;;;;;11.50;5.33;;;15.80;99.90;;;;;;4956077;28;20204;-64
2023/06/10 05:23:35;;;;;;;10.07;5.87;;;15.80;99.90;;;;;;4957900;28;20954;-63
2023/06/10 05:26:01;;;;;;;10.57;5.50;;;15.80;99.90;;;;;;4958037;28;20212;-63
2023/06/10 05:28:26;;;;;;;7.30;5.93;;;15.90;99.90;;;;;;4958064;28;20201;-63
2023/06/10 05:30:52;;;;;;;8.10;5.73;;;16.00;99.90;;;;;;4957780;28;20210;-63
2023/06/10 05:33:17;;;;;;;9.67;6.07;;;15.90;99.90;;;;;;4957895;28;20212;-65
2023/06/10 05:35:43;;;;;;;7.90;5.30;;;15.90;99.90;;;;;;4955563;28;20720;-64
2023/06/10 05:38:08;;;;;;;9.63;6.03;;;15.90;99.90;;;;;;4936149;28;20226;-64
2023/06/10 05:40:34;;;;;;;9.90;5.93;;;15.90;99.90;;;;;;4953660;28;20296;-63
2023/06/10 05:43:00;;;;;;;12.50;6.23;;;15.90;99.90;;;;;;4956879;28;20688;-63
2023/06/10 05:45:25;;;;;;;7.60;5.57;;;16.10;99.90;;;;;;4953279;28;20201;-64
2023/06/10 05:47:51;;;;;;;8.17;6.37;;;16.20;99.90;;;;;;4941922;28;20274;-64
2023/06/10 05:50:16;;;;;;;10.23;5.37;;;16.20;99.90;;;;;;4948619;28;20295;-63
2023/06/10 05:52:42;;;;;;;8.57;5.90;;;16.30;99.90;;;;;;4950439;28;20666;-64
2023/06/10 05:55:08;;;;;;;6.30;5.70;;;16.40;99.90;;;;;;4946623;28;20671;-63
2023/06/10 05:57:34;;;;;;;8.50;5.63;;;16.60;99.90;;;;;;4946669;28;20198;-63
2023/06/10 05:59:59;;;;;;;9.07;5.63;;;16.80;99.90;;;;;;4947750;28;20669;-65
2023/06/10 06:02:25;;;;;;;7.83;5.60;;;17.00;99.90;;;;;;4947103;28;20202;-64
2023/06/10 06:04:50;;;;;;;8.10;5.47;;;17.10;99.90;;;;;;4947602;28;20204;-63
2023/06/10 06:07:16;;;;;;;8.57;5.43;;;17.20;99.90;;;;;;4947547;28;20207;-63
2023/06/10 06:09:41;;;;;;;8.43;6.17;;;17.30;99.90;;;;;;4947537;28;20212;-63
2023/06/10 06:12:07;;;;;;;8.33;5.50;;;17.50;99.90;;;;;;4947246;28;20216;-67
2023/06/10 06:14:38;;;;;;;10.43;6.93;;;17.60;99.90;;;;;;4929981;29;20210;-64
2023/06/10 06:17:03;;;;;;;13.90;5.63;;;17.60;99.90;;;;;;4939959;28;20218;-64
2023/06/10 06:19:29;;;;;;;7.00;5.93;;;17.70;99.90;;;;;;4948612;28;20902;-71
2023/06/10 06:21:55;;;;;;;9.83;5.67;;;17.80;99.90;;;;;;4947546;28;20206;-71
2023/06/10 06:24:20;;;;;;;7.40;6.17;;;17.80;99.90;;;;;;4913354;28;998579;-70
2023/06/10 06:26:46;;;;;;;11.60;6.53;;;17.80;99.90;;;;;;4945306;28;20560;-71
2023/06/10 06:29:11;;;;;;;8.47;5.80;;;17.90;99.90;;;;;;4948516;28;20207;-69
2023/06/10 06:31:37;;;;;;;12.63;6.60;;;18.10;99.90;;;;;;4951387;28;20304;-71
2023/06/10 06:34:02;;;;;;;7.57;6.20;;;18.10;99.90;;;;;;4949056;28;20216;-69
2023/06/10 06:36:28;;;;;;;6.37;5.77;;;18.10;99.90;;;;;;4947877;28;20210;-70
2023/06/10 06:38:53;;;;;;;8.00;5.60;;;18.20;99.90;;;;;;4948104;28;20577;-71
2023/06/10 06:41:19;;;;;;;6.03;4.97;;;18.40;99.90;;;;;;4946548;28;20285;-71
2023/06/10 06:43:44;;;;;;;8.63;6.20;;;18.50;99.90;;;;;;4946181;28;20267;-72
2023/06/10 06:46:10;;;;;;;9.67;6.70;;;18.60;99.90;;;;;;4946359;28;20281;-70
2023/06/10 06:48:35;;;;;;;10.07;5.77;;;18.60;99.90;;;;;;4948587;28;20316;-71
2023/06/10 06:51:01;;;;;;;10.43;6.17;;;18.90;99.90;;;;;;4946259;28;20200;-70
2023/06/10 06:53:26;;;;;;;9.03;6.97;;;18.90;99.90;;;;;;4946883;28;20216;-71
2023/06/10 06:55:52;;;;;;;6.70;5.33;;;18.90;99.90;;;;;;4939742;28;20224;-72
2023/06/10 06:58:17;;;;;;;11.63;5.83;;;19.00;99.90;;;;;;4942020;28;20307;-70
2023/06/10 07:00:43;;;;;;;7.70;5.80;;;19.00;99.90;;;;;;4941153;28;20205;-70
2023/06/10 07:03:08;;;;;;;10.87;6.60;;;19.00;99.90;;;;;;4947066;28;20645;-72
2023/06/10 07:05:34;;;;;;;8.57;5.90;;;19.10;99.90;;;;;;4947465;28;20206;-70
2023/06/10 07:07:59;;;;;;;9.43;6.60;;;19.10;99.90;;;;;;4947702;28;20207;-71
2023/06/10 07:10:26;;;;;;;8.50;6.23;;;19.10;99.90;;;;;;4947530;28;20272;-69
2023/06/10 07:12:52;;;;;;;9.43;5.97;;;19.20;99.90;;;;;;4946328;28;20209;-69
2023/06/10 07:15:18;;;;;;;13.20;6.57;;;19.20;99.90;;;;;;4947087;28;20208;-69
2023/06/10 07:17:44;;;;;;;9.23;6.03;;;19.20;99.90;;;;;;4947333;28;20205;-70
2023/06/10 07:20:10;;;;;;;9.17;6.30;;;19.30;99.90;;;;;;4946926;28;20198;-72
2023/06/10 07:22:35;;;;;;;8.43;5.63;;;19.50;99.90;;;;;;4944412;28;20207;-70
2023/06/10 07:25:01;;;;;;;6.37;5.40;;;19.60;99.90;;;;;;4947170;28;20209;-70
2023/06/10 07:27:26;;;;;;;10.03;6.80;;;19.70;99.90;;;;;;4947284;28;20201;-71
2023/06/10 07:29:52;;;;;;;8.50;6.63;;;19.80;99.90;;;;;;4947735;28;20233;-71
2023/06/10 07:32:20;;;;;;;5.90;5.27;;;19.90;99.90;;;;;;4948453;28;20564;-70
2023/06/10 07:34:48;;;;;;;7.20;5.53;;;20.10;99.90;;;;;;4946369;28;20320;-70
2023/06/10 07:37:14;;;;;;;9.37;6.47;;;20.20;99.90;;;;;;4946748;28;20237;-70
2023/06/10 07:39:39;;;;;;;7.30;5.07;;;20.40;99.90;;;;;;4949787;28;20308;-68
2023/06/10 07:42:06;;;;;;;5.93;5.43;;;20.60;99.90;;;;;;4949912;28;20232;-71
2023/06/10 07:44:31;;;;;;;7.80;5.57;;;20.60;99.90;;;;;;4949849;28;20449;-69
2023/06/10 07:46:58;;;;;;;9.53;5.90;;;20.80;99.90;;;;;;4947879;28;20404;-70
2023/06/10 07:49:23;;;;;;;8.20;6.60;;;20.70;99.90;;;;;;4934053;28;20217;-70
2023/06/10 07:51:50;;;;;;;10.27;6.43;;;20.80;99.90;;;;;;4950879;28;20229;-69
2023/06/10 07:54:15;;;;;;;6.37;5.70;;;20.90;99.90;;;;;;4951561;28;20201;-71
2023/06/10 07:56:41;;;;;;;8.77;6.23;;;21.10;99.90;;;;;;4952520;28;20263;-71
2023/06/10 07:59:06;;;;;;;6.43;5.77;;;21.20;99.90;;;;;;4948758;28;20707;-72
2023/06/10 08:01:32;;;;;;;11.30;6.87;;;21.20;99.90;;;;;;4948375;28;20198;-70
2023/06/10 08:03:58;;;;;;;13.77;7.18;;;21.20;99.90;;;;;;4951267;28;20208;-70
2023/06/10 08:06:23;;;;;;;9.07;5.20;;;21.30;99.90;;;;;;4949166;28;20206;-70
2023/06/10 08:08:49;;;;;;;9.07;5.97;;;21.30;99.90;;;;;;4948400;28;20656;-70
2023/06/10 08:11:14;;;;;;;8.47;6.60;;;21.40;99.90;;;;;;4951476;28;20206;-69
2023/06/10 08:13:40;;;;;;;8.23;6.33;;;21.40;99.90;;;;;;4950794;28;20240;-70
2023/06/10 08:16:06;;;;;;;7.40;5.83;;;21.40;99.90;;;;;;4947143;28;20205;-71
2023/06/10 08:18:32;;;;;;;11.40;6.93;;;21.50;99.90;;;;;;4948926;28;20257;-70
2023/06/10 08:20:57;;;;;;;9.20;6.50;;;21.50;99.90;;;;;;4949673;28;20288;-71
2023/06/10 08:23:23;;;;;;;8.03;6.37;;;21.50;99.90;;;;;;4948982;28;20706;-74
2023/06/10 08:25:48;;;;;;;9.10;5.93;;;21.80;99.90;;;;;;4950853;28;20212;-72
2023/06/10 08:28:14;;;;;;;7.63;6.43;;;21.80;99.90;;;;;;4948679;28;20201;-71
2023/06/10 08:30:40;;;;;;;10.17;6.97;;;21.80;99.90;;;;;;4948732;28;20209;-71
2023/06/10 08:33:05;;;;;;;10.30;6.77;;;21.80;99.90;;;;;;4950773;28;20232;-73
2023/06/10 08:35:31;;;;;;;9.48;6.95;;;21.90;99.90;;;;;;4949647;28;20696;-70
2023/06/10 08:37:56;;;;;;;7.22;6.28;;;21.90;99.90;;;;;;4948387;28;20206;-69
2023/06/10 08:40:22;;;;;;;8.97;6.67;;;21.90;99.90;;;;;;4951415;28;20791;-71
2023/06/10 08:43:00;;;;;;;6.57;5.90;;;22.10;99.90;;;;;;4948489;28;20208;-71
2023/06/10 08:45:35;;;;;;;11.43;6.20;;;22.30;99.90;;;;;;4947470;28;20206;-72
2023/06/10 08:48:04;;;;;;;7.60;6.13;;;22.40;99.90;;;;;;4947339;28;20348;-70
2023/06/10 08:50:30;;;;;;;10.07;6.57;;;22.50;99.90;;;;;;4950032;28;20568;-70
2023/06/10 08:52:58;;;;;;;9.70;6.83;;;22.60;99.90;;;;;;4948633;28;20293;-70
2023/06/10 08:55:30;;;;;;;7.10;6.15;;;22.70;99.90;;;;;;4940805;28;20202;-70
2023/06/10 08:57:56;;;;;;;7.00;6.27;;;22.70;99.90;;;;;;4959613;28;20232;-71
2023/06/10 09:00:22;;;;;;;6.07;5.45;;;22.80;99.90;;;;;;4958606;28;20244;-70
2023/06/10 09:02:49;;;;;;;11.88;6.78;;;22.90;99.90;;;;;;4952304;28;20202;-71
2023/06/10 09:05:16;;;;;;;7.30;5.13;;;23.00;99.90;;;;;;4955499;28;20198;-71
2023/06/10 09:07:41;;;;;;;8.90;5.68;;;23.10;99.90;;;;;;4957402;28;20680;-71
2023/06/10 09:10:07;;;;;;;7.30;6.00;;;23.00;99.90;;;;;;4953241;28;20206;-71
2023/06/10 09:12:35;;;;;;;8.27;6.00;;;22.90;99.90;;;;;;4950094;28;20201;-71
2023/06/10 09:15:01;;;;;;;7.85;6.53;;;22.90;99.90;;;;;;4949383;28;20691;-71
2023/06/10 09:17:27;;;;;;;6.95;6.00;;;22.90;99.90;;;;;;4947078;28;20218;-71
2023/06/10 09:19:55;;;;;;;13.13;6.68;;;22.90;99.90;;;;;;4945240;28;20792;-70
2023/06/10 09:22:21;;;;;;;7.15;5.32;;;23.00;99.90;;;;;;4951772;28;20198;-71
2023/06/10 09:24:47;;;;;;;8.70;6.95;;;23.00;99.90;;;;;;4949773;28;20305;-71
2023/06/10 09:27:13;;;;;;;9.93;6.20;;;23.20;99.90;;;;;;4947603;28;20207;-71
2023/06/10 09:29:51;;;;;;;7.97;6.53;;;23.00;99.90;;;;;;4949310;28;20201;-71
2023/06/10 09:32:18;;;;;;;10.63;6.30;;;23.00;99.90;;;;;;4946711;28;20212;-71
2023/06/10 09:34:44;;;;;;;7.57;5.77;;;22.90;99.90;;;;;;4949453;28;20968;-69
2023/06/10 09:37:13;;;;;;;9.00;6.10;;;22.90;99.90;;;;;;4957941;28;20207;-70
2023/06/10 09:39:40;;;;;;;10.23;6.57;;;22.90;99.90;;;;;;4956491;28;20256;-69
2023/06/10 09:42:18;;;;;;;6.43;5.80;;;22.90;99.90;;;;;;4958454;28;20193;-69
2023/06/10 09:44:51;;;;;;;13.18;6.40;;;22.90;99.90;;;;;;4958160;28;20201;-68
2023/06/10 09:47:22;;;;;;;8.90;5.32;;;22.90;99.90;;;;;;4956006;28;20202;-70
2023/06/10 09:49:48;;;;;;;10.47;6.67;;;22.90;99.90;;;;;;4954747;28;20284;-70
2023/06/10 09:52:13;;;;;;;6.53;5.43;;;22.80;99.90;;;;;;4956721;28;20238;-69
2023/06/10 09:54:39;;;;;;;10.43;6.35;;;22.70;99.90;;;;;;4957191;28;20233;-70
2023/06/10 09:57:11;;;;;;;8.67;6.17;;;22.60;99.90;;;;;;4955668;28;20208;-69
2023/06/10 09:59:37;;;;;;;9.60;5.97;;;22.60;99.90;;;;;;4944393;28;20374;-70
2023/06/10 10:02:04;;;;;;;8.15;6.47;;;22.70;99.90;;;;;;4954058;28;20198;-72
2023/06/10 10:04:29;;;;;;;6.83;6.03;;;22.80;99.90;;;;;;4956135;28;20241;-70
2023/06/10 10:06:59;;;;;;;7.60;5.97;;;22.70;99.90;;;;;;4953983;28;20221;-72
2023/06/10 10:09:24;;;;;;;11.83;7.17;;;22.70;99.90;;;;;;4957365;28;20613;-72
2023/06/10 10:11:53;;;;;;;11.20;6.88;;;22.70;99.90;;;;;;4957974;28;20317;-73
2023/06/10 10:14:20;;;;;;;11.83;7.10;;;22.70;99.90;;;;;;4957851;28;20284;-71
2023/06/10 10:16:47;;;;;;;8.77;6.53;;;22.80;99.90;;;;;;4947337;28;20571;-69
2023/06/10 10:19:23;;;;;;;9.23;6.68;;;22.90;99.90;;;;;;4946685;28;20212;-69
2023/06/10 10:21:53;;;;;;;10.88;7.10;;;22.80;99.90;;;;;;4952594;28;20225;-71
2023/06/10 10:24:23;;;;;;;11.05;7.45;;;22.90;99.90;;;;;;4956903;28;20231;-71
2023/06/10 10:26:50;;;;;;;14.32;6.50;;;23.10;99.90;;;;;;4944607;28;20264;-70
2023/06/10 10:29:38;;;;;;;10.93;7.68;;;22.90;99.90;;;;;;4943000;28;20209;-68
2023/06/10 10:32:10;;;;;;;6.63;6.10;;;23.10;99.90;;;;;;4945535;28;20249;-69
2023/06/10 10:35:01;;;;;;;13.17;7.33;;;23.00;99.90;;;;;;4944397;28;20214;-71
2023/06/10 10:37:26;;;;;;;7.00;6.40;;;22.90;99.90;;;;;;4947895;28;20213;-70
2023/06/10 10:39:52;;;;;;;9.07;6.43;;;22.80;99.90;;;;;;4946240;28;20220;-69
2023/06/10 10:42:18;;;;;;;9.20;6.10;;;22.70;99.90;;;;;;4948327;28;20217;-70
2023/06/10 10:44:44;;;;;;;6.20;5.70;;;22.70;99.90;;;;;;4929565;28;20252;-69
2023/06/10 10:47:11;;;;;;;7.40;5.80;;;22.80;99.90;;;;;;4944636;28;20734;-71
2023/06/10 10:49:37;;;;;;;10.65;5.55;;;22.90;99.90;;;;;;4949515;28;20212;-69
2023/06/10 10:52:06;;;;;;;8.00;5.70;;;22.90;99.90;;;;;;4946585;28;20236;-71
2023/06/10 10:54:34;;;;;;;9.30;6.30;;;22.80;99.90;;;;;;4941194;28;20747;-72
2023/06/10 10:57:19;;;;;;;4.90;4.50;;;22.80;99.90;;;;;;4948609;28;20209;-70
2023/06/10 10:59:48;;;;;;;5.97;5.47;;;22.80;99.90;;;;;;4948782;28;20221;-69
2023/06/10 11:02:18;;;;;;;7.18;5.00;;;22.70;99.90;;;;;;4946003;28;20201;-70
2023/06/10 11:04:47;;;;;;;4.70;4.30;;;22.80;99.90;;;;;;4945953;28;20284;-70
2023/06/10 11:07:16;;;;;;;8.50;5.53;;;22.80;99.90;;;;;;4942921;28;20252;-70
2023/06/10 11:10:06;;;;;;;7.83;4.67;;;22.80;99.90;;;;;;4948483;28;20189;-70
2023/06/10 11:12:45;;;;;;;5.75;5.25;;;22.80;99.90;;;;;;4946345;28;20680;-70
2023/06/10 11:15:11;;;;;;;5.10;4.68;;;22.90;99.90;;;;;;4950023;28;20206;-69
2023/06/10 11:17:37;;;;;;;6.17;5.53;;;22.90;99.90;;;;;;4952072;28;20202;-70
2023/06/10 11:20:03;;;;;;;4.80;4.40;;;22.90;99.90;;;;;;4951758;28;20221;-70
2023/06/10 11:22:28;;;;;;;5.55;4.50;;;23.20;99.90;;;;;;4948347;28;20915;-69
2023/06/10 11:24:54;;;;;;;7.50;5.43;;;23.30;99.90;;;;;;4951449;28;20853;-70
2023/06/10 11:27:21;;;;;;;5.53;4.63;;;23.40;99.90;;;;;;4951448;28;20332;-71
2023/06/10 11:29:57;;;;;;;6.43;4.45;;;23.60;99.90;;;;;;4950703;28;20611;-71
2023/06/10 11:32:28;;;;;;;5.78;4.55;;;23.70;99.90;;;;;;4949550;28;20211;-71
2023/06/10 11:34:53;;;;;;;5.68;4.82;;;23.70;99.90;;;;;;4949547;28;20222;-71
2023/06/10 11:37:20;;;;;;;5.85;5.35;;;23.70;99.90;;;;;;4931156;28;20317;-69
2023/06/10 11:39:46;;;;;;;5.18;4.72;;;23.80;99.90;;;;;;4951092;28;20585;-71
2023/06/10 11:42:12;;;;;;;6.30;5.70;;;23.80;99.90;;;;;;4946364;28;20210;-71
2023/06/10 11:44:38;;;;;;;7.13;5.22;;;24.00;99.90;;;;;;4951171;28;20917;-71
2023/06/10 11:47:03;;;;;;;5.68;4.63;;;24.10;99.90;;;;;;4950803;28;20209;-71
2023/06/10 11:49:29;;;;;;;5.53;4.90;;;24.20;99.90;;;;;;4948663;28;20219;-71
2023/06/10 11:51:56;;;;;;;4.82;4.43;;;24.20;98.60;;;;;;4950952;28;20201;-71
2023/06/10 11:54:22;;;;;;;6.03;4.97;;;24.20;99.70;;;;;;4951117;28;20213;-71
2023/06/10 11:56:48;;;;;;;4.07;3.78;;;23.90;99.90;;;;;;4952331;28;20256;-71
2023/06/10 11:59:14;;;;;;;4.53;4.22;;;23.90;99.80;;;;;;4949134;28;20209;-71
2023/06/10 12:01:44;;;;;;;5.05;4.63;;;23.80;99.80;;;;;;4948069;28;20202;-71
2023/06/10 12:04:12;;;;;;;5.00;4.60;;;24.00;99.90;;;;;;4951764;28;20249;-70
2023/06/10 12:06:43;;;;;;;4.90;3.88;;;24.10;99.90;;;;;;4950603;28;20202;-70
2023/06/10 12:09:20;;;;;;;9.77;4.53;;;24.40;99.90;;;;;;4951102;28;20284;-70
2023/06/10 12:11:48;;;;;;;7.25;4.82;;;24.70;99.90;;;;;;4951133;28;20619;-71
2023/06/10 12:14:13;;;;;;;5.55;4.68;;;25.00;99.90;;;;;;4947561;28;20205;-70
2023/06/10 12:16:39;;;;;;;6.35;5.28;;;25.40;99.90;;;;;;4932243;28;20211;-71
2023/06/10 12:19:06;;;;;;;6.13;5.57;;;25.60;99.90;;;;;;4948624;28;20236;-71
2023/06/10 12:21:34;;;;;;;7.05;5.80;;;25.80;99.90;;;;;;4945877;28;20710;-70
2023/06/10 12:24:08;;;;;;;8.13;5.78;;;25.80;99.90;;;;;;4950390;28;20223;-71
2023/06/10 12:26:36;;;;;;;6.97;6.38;;;26.00;99.20;;;;;;4947909;28;20244;-70
2023/06/10 12:29:11;;;;;;;5.50;5.00;;;26.20;97.50;;;;;;4950873;28;20211;-71
2023/06/10 12:32:01;;;;;;;5.68;5.07;;;26.30;96.70;;;;;;4948278;28;20273;-70
2023/06/10 12:34:33;;;;;;;5.85;5.20;;;26.40;96.60;;;;;;4942538;28;21559;-69
2023/06/10 12:37:00;;;;;;;5.50;5.00;;;26.60;96.60;;;;;;4948130;28;20255;-70
2023/06/10 12:39:26;;;;;;;5.35;4.95;;;27.00;95.10;;;;;;4949876;28;20692;-70
2023/06/10 12:41:52;;;;;;;5.32;4.82;;;27.00;94.90;;;;;;4946617;28;20675;-70